Time;durP1;ratioP1;P1;durP2;ratioP2;P2;SDS_P1;SDS_P2;PMS_P1;PMS_P2;Temp;Humidity;BMP_temperature;BMP_pressure;BME280_temperature;BME280_humidity;BME280_pressure;Samples;Min_cycle;Max_cycle;Signal;HPM_P1;HPM_P2
2023/05/02 00:00:51;;;;;;;2.77;1.40;;;;;;;12.63;72.02;99612.75;5132472;27;20214;-77
2023/05/02 00:03:18;;;;;;;2.00;1.50;;;;;;;12.47;73.84;99617.34;5132395;27;20205;-77
2023/05/02 00:05:45;;;;;;;2.37;1.30;;;;;;;12.40;74.26;99614.41;5132321;27;20212;-77
2023/05/02 00:08:12;;;;;;;1.50;1.20;;;;;;;12.35;74.58;99608.78;5132431;27;20730;-77
2023/05/02 00:10:40;;;;;;;2.10;1.47;;;;;;;12.31;74.64;99607.38;5132194;27;20769;-77
2023/05/02 00:13:07;;;;;;;2.07;1.40;;;;;;;12.30;74.56;99612.59;5132151;27;20252;-77
2023/05/02 00:15:34;;;;;;;1.70;1.23;;;;;;;12.29;74.21;99613.53;5131922;27;20216;-77
2023/05/02 00:18:00;;;;;;;5.03;1.47;;;;;;;12.23;74.44;99625.03;5132078;27;20200;-77
2023/05/02 00:20:27;;;;;;;1.83;1.20;;;;;;;12.19;73.94;99626.19;5131616;27;20216;-77
2023/05/02 00:22:55;;;;;;;1.30;1.00;;;;;;;12.29;73.58;99624.59;5131936;27;20286;-77
2023/05/02 00:25:22;;;;;;;2.10;1.30;;;;;;;12.23;73.79;99619.91;5131937;27;20219;-77
2023/05/02 00:27:51;;;;;;;1.20;1.10;;;;;;;12.08;74.78;99621.81;5132037;27;20207;-77
2023/05/02 00:30:19;;;;;;;1.00;0.90;;;;;;;12.07;74.79;99619.34;5131787;27;20303;-77
2023/05/02 00:32:46;;;;;;;1.83;1.20;;;;;;;11.93;76.30;99625.44;5131885;27;20283;-77
2023/05/02 00:35:13;;;;;;;2.27;1.23;;;;;;;11.79;77.57;99622.03;5131819;27;20236;-77
2023/05/02 00:37:40;;;;;;;1.37;0.93;;;;;;;11.67;78.95;99622.06;5131810;27;20216;-77
2023/05/02 00:40:08;;;;;;;1.77;1.30;;;;;;;11.63;79.17;99618.88;5131506;27;20220;-77
2023/05/02 00:42:35;;;;;;;1.70;1.37;;;;;;;11.69;79.34;99625.34;5131450;27;20581;-77
2023/05/02 00:45:05;;;;;;;1.40;1.23;;;;;;;11.68;79.84;99628.81;5131489;27;20285;-77
2023/05/02 00:47:32;;;;;;;2.13;1.40;;;;;;;11.68;79.56;99613.47;5131395;27;20197;-77
2023/05/02 00:49:59;;;;;;;1.93;1.40;;;;;;;11.73;79.70;99614.78;5131385;27;20764;-77
2023/05/02 00:52:27;;;;;;;1.33;1.10;;;;;;;11.74;79.39;99628.41;5131439;27;20223;-77
2023/05/02 00:54:54;;;;;;;1.33;1.03;;;;;;;11.74;79.87;99628.41;5131367;27;20236;-77
2023/05/02 00:57:21;;;;;;;1.73;1.20;;;;;;;11.64;79.90;99629.97;5131235;27;20200;-77
2023/05/02 00:59:48;;;;;;;1.30;1.20;;;;;;;11.57;80.23;99626.97;5131349;27;20223;-77
2023/05/02 01:02:27;;;;;;;1.53;1.30;;;;;;;11.58;80.32;99628.63;5131149;27;20197;-77
2023/05/02 01:05:02;;;;;;;2.33;1.30;;;;;;;11.60;80.33;99625.97;5131064;27;20500;-77
2023/05/02 01:08:07;;;;;;;1.67;1.27;;;;;;;11.64;80.36;99628.22;5130846;27;20200;-77
2023/05/02 01:10:48;;;;;;;1.20;1.10;;;;;;;11.66;80.82;99620.41;5127792;27;20273;-77
2023/05/02 01:13:22;;;;;;;2.07;1.20;;;;;;;11.59;80.56;99629.44;5131067;27;20200;-77
2023/05/02 01:15:51;;;;;;;1.40;1.20;;;;;;;11.62;80.02;99634.38;5130966;27;20258;-77
2023/05/02 01:18:23;;;;;;;1.07;0.87;;;;;;;11.64;79.74;99627.41;5131150;27;20204;-77
2023/05/02 01:20:55;;;;;;;1.73;1.50;;;;;;;11.62;79.82;99634.38;5131012;27;20216;-77
2023/05/02 01:23:29;;;;;;;2.87;1.10;;;;;;;11.57;80.34;99626.97;5130793;27;20295;-77
2023/05/02 01:26:06;;;;;;;3.17;1.13;;;;;;;11.55;80.22;99629.66;5130881;27;20216;-77
2023/05/02 01:28:53;;;;;;;2.37;1.37;;;;;;;11.65;79.18;99623.91;5130855;27;20203;-77
2023/05/02 01:31:23;;;;;;;1.70;1.20;;;;;;;11.63;79.67;99625.75;5127293;27;20196;-77
2023/05/02 01:33:52;;;;;;;1.13;1.03;;;;;;;11.69;79.53;99620.22;5129961;27;20223;-77
2023/05/02 01:36:20;;;;;;;1.93;1.10;;;;;;;11.67;79.46;99624.63;5131016;27;20238;-77
2023/05/02 01:38:49;;;;;;;1.87;1.30;;;;;;;11.62;79.36;99624.13;5130605;28;20196;-77
2023/05/02 01:41:17;;;;;;;1.20;1.10;;;;;;;11.68;79.47;99621.13;5130677;28;20269;-77
2023/05/02 01:43:45;;;;;;;1.37;1.10;;;;;;;11.60;79.38;99624.22;5130627;27;20249;-77
2023/05/02 01:46:15;;;;;;;1.97;1.10;;;;;;;11.64;79.25;99632.53;5130830;28;20606;-77
2023/05/02 01:48:46;;;;;;;1.93;1.30;;;;;;;11.53;79.76;99626.38;5130762;28;20653;-77
2023/05/02 01:51:18;;;;;;;2.27;1.40;;;;;;;11.47;80.39;99631.09;5130522;28;20228;-77
2023/05/02 01:53:48;;;;;;;1.73;1.50;;;;;;;11.47;79.97;99634.47;5130862;28;20249;-77
2023/05/02 01:56:18;;;;;;;1.07;0.97;;;;;;;11.45;80.78;99628.63;5130633;28;20240;-77
2023/05/02 01:58:46;;;;;;;1.90;1.20;;;;;;;11.35;81.60;99627.63;5130549;28;20256;-77
2023/05/02 02:01:14;;;;;;;1.77;1.23;;;;;;;11.36;81.75;99634.38;5130262;28;20220;-77
2023/05/02 02:03:43;;;;;;;2.10;1.40;;;;;;;11.33;81.97;99634.56;5130833;28;20240;-77
2023/05/02 02:06:12;;;;;;;2.80;1.30;;;;;;;11.21;82.39;99630.28;5130500;28;20230;-77
2023/05/02 02:08:39;;;;;;;1.13;1.00;;;;;;;11.29;81.98;99633.16;5130572;28;20265;-77
2023/05/02 02:11:12;;;;;;;2.17;1.47;;;;;;;11.26;82.88;99633.38;5130420;28;20721;-77
2023/05/02 02:13:45;;;;;;;4.70;1.40;;;;;;;11.22;82.84;99632.72;5130543;28;20205;-77
2023/05/02 02:16:16;;;;;;;1.50;1.20;;;;;;;11.24;83.12;99627.50;5130288;28;20235;-77
2023/05/02 02:18:45;;;;;;;1.27;1.10;;;;;;;11.29;82.52;99625.47;5130478;27;20721;-77
2023/05/02 02:21:16;;;;;;;1.47;1.23;;;;;;;11.23;83.08;99629.25;5130793;28;20297;-77
2023/05/02 02:23:46;;;;;;;2.00;1.20;;;;;;;11.28;83.25;99632.31;5130228;28;20676;-77
2023/05/02 02:26:14;;;;;;;3.33;1.67;;;;;;;11.30;82.53;99629.66;5130115;27;20231;-77
2023/05/02 02:28:41;;;;;;;1.80;1.30;;;;;;;11.32;83.03;99630.38;5130504;28;20209;-77
2023/05/02 02:31:08;;;;;;;1.93;1.20;;;;;;;11.25;84.00;99629.94;5130295;28;20703;-77
2023/05/02 02:33:35;;;;;;;1.00;0.90;;;;;;;11.27;83.99;99633.25;5130268;28;20204;-77
2023/05/02 02:36:11;;;;;;;1.73;1.30;;;;;;;11.21;84.31;99630.28;5130033;28;20286;-77
2023/05/02 02:38:46;;;;;;;3.80;1.50;;;;;;;11.14;85.04;99639.25;5130455;28;20261;-77
2023/05/02 02:41:16;;;;;;;2.80;1.50;;;;;;;11.10;85.21;99639.47;5130167;28;20217;-77
2023/05/02 02:43:51;;;;;;;1.63;1.20;;;;;;;10.98;86.64;99642.00;5130946;27;20201;-77
2023/05/02 02:46:30;;;;;;;1.93;1.60;;;;;;;11.04;86.14;99642.44;5133872;27;20260;-77
2023/05/02 02:49:11;;;;;;;1.57;1.30;;;;;;;11.06;86.53;99635.47;5134052;27;20192;-77
2023/05/02 02:51:46;;;;;;;2.33;1.50;;;;;;;11.08;87.01;99635.38;5133652;27;20232;-77
2023/05/02 02:54:19;;;;;;;1.97;1.30;;;;;;;11.06;87.48;99634.66;5133837;27;20220;-77
2023/05/02 02:56:49;;;;;;;1.53;1.23;;;;;;;11.13;87.00;99643.56;5133651;27;20202;-77
2023/05/02 02:59:20;;;;;;;2.50;1.20;;;;;;;11.10;87.25;99639.47;5133918;27;20220;-77
2023/05/02 03:01:55;;;;;;;1.77;1.60;;;;;;;11.13;87.37;99635.06;5133505;27;20196;-77
2023/05/02 03:04:23;;;;;;;1.47;1.30;;;;;;;11.16;87.03;99642.56;5133403;27;20239;-77
2023/05/02 03:06:51;;;;;;;1.90;1.10;;;;;;;11.11;87.19;99635.16;5133388;27;20196;-77
2023/05/02 03:09:18;;;;;;;1.93;1.60;;;;;;;11.08;87.77;99641.31;5133153;27;20213;-77
2023/05/02 03:11:45;;;;;;;2.03;1.33;;;;;;;11.08;87.80;99637.94;5133376;27;20207;-77
2023/05/02 03:14:12;;;;;;;1.57;1.33;;;;;;;11.16;87.64;99645.09;5133170;27;20772;-77
2023/05/02 03:16:40;;;;;;;1.20;1.07;;;;;;;11.04;88.04;99647.53;5133681;27;20189;-77
2023/05/02 03:19:07;;;;;;;1.83;1.30;;;;;;;11.07;88.26;99649.91;5133324;27;20204;-77
2023/05/02 03:21:35;;;;;;;2.03;1.50;;;;;;;11.00;88.33;99652.97;5133295;27;20203;-77
2023/05/02 03:24:05;;;;;;;2.33;1.50;;;;;;;10.95;88.72;99655.00;5133160;27;20201;-77
2023/05/02 03:26:31;;;;;;;1.73;1.30;;;;;;;10.96;88.81;99657.44;5133029;27;20204;-77
2023/05/02 03:28:58;;;;;;;1.80;1.60;;;;;;;10.98;88.71;99663.31;5132985;27;20197;-77
2023/05/02 03:31:25;;;;;;;2.00;1.30;;;;;;;11.04;88.78;99664.66;5132983;27;20201;-77
2023/05/02 03:33:52;;;;;;;3.30;1.90;;;;;;;11.02;89.09;99657.06;5133130;27;20223;-77
2023/05/02 03:36:19;;;;;;;2.70;1.57;;;;;;;11.05;89.09;99656.03;5132641;27;20231;-77
2023/05/02 03:38:45;;;;;;;1.70;1.27;;;;;;;11.14;88.50;99660.59;5132984;27;20200;-77
2023/05/02 03:41:13;;;;;;;1.80;1.30;;;;;;;11.24;87.49;99655.66;5132895;27;20216;-77
2023/05/02 03:43:40;;;;;;;2.90;1.70;;;;;;;11.33;87.72;99663.56;5133048;27;20196;-77
2023/05/02 03:46:10;;;;;;;2.83;1.60;;;;;;;11.41;86.95;99663.06;5132608;27;20265;-77
2023/05/02 03:48:37;;;;;;;2.30;1.50;;;;;;;11.52;86.53;99675.97;5132908;27;20200;-77
2023/05/02 03:51:07;;;;;;;1.60;1.23;;;;;;;11.63;86.57;99674.41;5132707;27;20212;-77
2023/05/02 03:53:33;;;;;;;1.33;1.23;;;;;;;11.63;87.02;99688.03;5132468;27;20209;-77
2023/05/02 03:56:00;;;;;;;2.03;1.60;;;;;;;11.68;86.63;99691.13;5131772;27;20297;-77
2023/05/02 03:58:28;;;;;;;2.30;1.67;;;;;;;11.75;86.52;99689.78;5132539;27;20192;-77
2023/05/02 04:00:55;;;;;;;2.03;1.40;;;;;;;11.81;86.76;99692.84;5132377;27;20221;-77
2023/05/02 04:03:22;;;;;;;2.63;1.70;;;;;;;11.83;86.17;99689.25;5132271;27;20265;-77
2023/05/02 04:05:50;;;;;;;2.17;1.70;;;;;;;11.96;85.15;99695.22;5132453;27;20277;-77
2023/05/02 04:08:17;;;;;;;3.97;1.77;;;;;;;12.02;85.68;99698.31;5132566;27;20283;-77
2023/05/02 04:10:44;;;;;;;1.37;1.27;;;;;;;12.04;86.37;99709.25;5132277;27;20273;-77
2023/05/02 04:13:11;;;;;;;2.47;1.63;;;;;;;12.09;85.74;99699.50;5132278;27;20197;-77
2023/05/02 04:15:39;;;;;;;1.93;1.53;;;;;;;12.19;85.20;99695.41;5132041;27;20704;-77
2023/05/02 04:18:05;;;;;;;3.00;1.93;;;;;;;12.33;84.07;99702.94;5132030;27;20261;-77
2023/05/02 04:20:33;;;;;;;2.80;1.50;;;;;;;12.45;83.15;99696.97;5131936;27;20220;-77
2023/05/02 04:23:00;;;;;;;1.73;1.50;;;;;;;12.65;83.56;99702.41;5131994;27;20207;-77
2023/05/02 04:25:27;;;;;;;1.93;1.40;;;;;;;12.74;82.02;99708.63;5132031;27;20225;-77
2023/05/02 04:27:54;;;;;;;2.90;1.80;;;;;;;12.87;82.38;99707.66;5131776;27;20252;-77
2023/05/02 04:30:21;;;;;;;1.80;1.30;;;;;;;13.08;81.45;99709.59;5131770;27;20676;-77
2023/05/02 04:32:49;;;;;;;2.47;1.80;;;;;;;13.28;81.52;99706.44;5132085;27;20638;-77
2023/05/02 04:35:16;;;;;;;1.90;1.43;;;;;;;13.44;80.25;99711.28;5131616;27;20237;-77
2023/05/02 04:37:43;;;;;;;2.80;1.67;;;;;;;13.73;79.90;99701.38;5131667;27;20247;-77
2023/05/02 04:40:11;;;;;;;2.40;1.43;;;;;;;13.98;77.85;99704.66;5131773;27;20214;-77
2023/05/02 04:42:38;;;;;;;2.93;1.77;;;;;;;14.02;78.90;99703.47;5131748;27;20627;-77
2023/05/02 04:45:06;;;;;;;4.37;1.57;;;;;;;14.20;76.96;99707.22;5131759;27;20228;-77
2023/05/02 04:47:33;;;;;;;2.10;1.30;;;;;;;14.45;76.34;99707.88;5131477;27;20196;-77
2023/05/02 04:50:01;;;;;;;2.77;1.17;;;;;;;14.64;75.52;99710.66;5131866;27;20223;-77
2023/05/02 04:52:28;;;;;;;4.33;1.43;;;;;;;14.82;75.21;99705.00;5131490;27;20205;-77
2023/05/02 04:54:55;;;;;;;1.50;1.30;;;;;;;14.93;73.02;99712.69;5131335;27;20220;-77
2023/05/02 04:57:22;;;;;;;3.73;1.50;;;;;;;15.25;70.89;99706.69;5131426;27;20205;-77
2023/05/02 04:59:49;;;;;;;1.77;1.30;;;;;;;15.43;67.91;99712.88;5132311;27;20742;-77
2023/05/02 05:02:16;;;;;;;1.50;1.30;;;;;;;15.68;65.21;99710.88;5132315;27;20218;-77
2023/05/02 05:04:44;;;;;;;2.00;1.43;;;;;;;15.76;67.28;99711.06;5131396;27;20240;-77
2023/05/02 05:07:12;;;;;;;2.10;1.30;;;;;;;15.94;65.37;99717.25;5131726;27;20785;-78
2023/05/02 05:09:39;;;;;;;1.67;1.37;;;;;;;16.00;64.16;99714.16;5131693;27;20221;-78
2023/05/02 05:12:06;;;;;;;1.33;1.23;;;;;;;16.10;62.75;99715.94;5132510;27;20250;-78
2023/05/02 05:14:33;;;;;;;1.97;1.10;;;;;;;15.89;61.16;99721.97;5132540;27;20217;-78
2023/05/02 05:17:00;;;;;;;1.73;1.50;;;;;;;16.26;62.11;99714.50;5131810;27;20667;-78
2023/05/02 05:19:26;;;;;;;2.30;1.17;;;;;;;16.36;59.36;99714.53;5132116;27;20280;-77
2023/05/02 05:21:53;;;;;;;1.13;1.03;;;;;;;16.46;59.58;99714.53;5132137;27;20211;-77
2023/05/02 05:24:21;;;;;;;2.17;1.20;;;;;;;16.70;59.98;99711.59;5132808;27;20223;-78
2023/05/02 05:26:48;;;;;;;1.83;1.30;;;;;;;17.11;59.31;99720.06;5132747;27;20253;-78
2023/05/02 05:29:17;;;;;;;1.43;1.30;;;;;;;17.18;57.25;99719.38;5133131;27;20624;-78
2023/05/02 05:31:43;;;;;;;1.40;1.00;;;;;;;17.22;57.62;99717.34;5133297;27;20673;-78
2023/05/02 05:34:11;;;;;;;1.37;1.20;;;;;;;17.20;57.41;99724.41;5133605;27;20196;-78
2023/05/02 05:36:40;;;;;;;2.33;1.20;;;;;;;17.28;59.82;99729.72;5133722;27;20233;-78
2023/05/02 05:39:07;;;;;;;1.77;1.50;;;;;;;17.59;57.05;99732.09;5133345;27;20250;-78
2023/05/02 05:41:37;;;;;;;1.63;1.20;;;;;;;17.83;55.91;99721.28;5131180;27;20203;-78
2023/05/02 05:44:04;;;;;;;2.07;1.43;;;;;;;18.00;55.56;99727.47;5132917;27;20205;-78
2023/05/02 05:46:30;;;;;;;1.20;1.10;;;;;;;18.04;55.61;99723.66;5132056;28;20199;-77
2023/05/02 05:48:57;;;;;;;3.97;1.10;;;;;;;18.16;53.57;99730.28;5131817;28;20202;-77
2023/05/02 05:51:26;;;;;;;1.80;1.17;;;;;;;18.12;54.34;99731.50;5131903;27;20241;-78
2023/05/02 05:53:53;;;;;;;1.67;1.07;;;;;;;18.05;52.56;99735.63;5132994;27;20279;-79
2023/05/02 05:56:20;;;;;;;3.20;1.70;;;;;;;18.23;53.41;99733.09;5132616;28;20265;-79
2023/05/02 05:58:48;;;;;;;1.67;1.50;;;;;;;18.37;53.38;99729.22;5133732;27;20434;-80
2023/05/02 06:01:15;;;;;;;2.33;1.40;;;;;;;18.22;52.54;99728.91;5132889;28;20278;-79
2023/05/02 06:03:42;;;;;;;1.70;1.20;;;;;;;18.65;53.05;99728.22;5134044;28;20223;-79
2023/05/02 06:06:09;;;;;;;2.97;1.40;;;;;;;18.64;52.94;99730.94;5132977;28;20651;-79
2023/05/02 06:08:36;;;;;;;4.30;1.40;;;;;;;18.13;52.38;99722.81;5132264;28;20209;-79
2023/05/02 06:11:04;;;;;;;1.40;1.10;;;;;;;18.50;52.87;99725.31;5135793;28;20734;-79
2023/05/02 06:13:31;;;;;;;1.43;1.30;;;;;;;18.71;52.61;99726.81;5137749;28;20230;-79
2023/05/02 06:16:02;;;;;;;1.50;1.30;;;;;;;19.02;55.28;99729.88;5136699;27;20329;-79
2023/05/02 06:18:29;;;;;;;1.57;1.33;;;;;;;19.15;52.69;99738.09;5135816;27;20621;-79
2023/05/02 06:20:56;;;;;;;1.80;1.37;;;;;;;19.07;53.29;99732.84;5138899;27;20215;-80
2023/05/02 06:23:23;;;;;;;1.73;1.27;;;;;;;19.25;51.68;99739.78;5138721;27;20504;-79
2023/05/02 06:25:50;;;;;;;1.47;1.10;;;;;;;19.39;54.00;99739.22;5138892;27;20278;-79
2023/05/02 06:28:16;;;;;;;1.47;1.30;;;;;;;19.45;51.54;99736.03;5137037;27;20240;-79
2023/05/02 06:30:43;;;;;;;3.10;1.23;;;;;;;19.43;50.84;99743.13;5135282;27;20226;-82
2023/05/02 06:33:12;;;;;;;3.23;1.40;;;;;;;19.84;50.63;99741.66;5138428;27;20211;-78
2023/05/02 06:35:39;;;;;;;1.73;1.17;;;;;;;20.14;51.46;99736.91;5137141;27;20327;-78
2023/05/02 06:38:05;;;;;;;2.93;1.30;;;;;;;20.45;49.37;99741.53;5137767;27;20200;-79
2023/05/02 06:40:35;;;;;;;4.27;1.30;;;;;;;19.90;49.92;99737.63;5139759;27;20270;-79
2023/05/02 06:43:02;;;;;;;1.50;1.20;;;;;;;19.90;51.40;99737.63;5137826;27;20230;-80
2023/05/02 06:45:28;;;;;;;1.37;1.20;;;;;;;20.29;49.80;99739.72;5136748;27;20640;-81
2023/05/02 06:47:55;;;;;;;1.47;1.10;;;;;;;20.36;48.45;99735.50;5136088;27;20265;-81
2023/05/02 06:50:24;;;;;;;1.67;1.20;;;;;;;20.44;49.49;99732.13;5135281;27;20251;-81
2023/05/02 06:52:56;;;;;;;3.03;1.33;;;;;;;20.81;49.10;99744.75;5136159;27;20226;-81
2023/05/02 06:55:23;;;;;;;3.83;1.37;;;;;;;20.23;47.23;99750.75;5139027;27;20694;-79
2023/05/02 06:57:50;;;;;;;2.63;1.40;;;;;;;19.67;50.21;99745.94;5136025;27;20208;-79
2023/05/02 07:00:19;;;;;;;1.30;1.20;;;;;;;19.96;49.25;99744.00;5135765;27;20224;-79
2023/05/02 07:02:47;;;;;;;2.20;1.33;;;;;;;20.21;48.13;99739.69;5135050;27;20202;-79
2023/05/02 07:05:15;;;;;;;1.50;1.23;;;;;;;20.48;47.98;99744.66;5135230;27;20307;-78
2023/05/02 07:07:43;;;;;;;3.53;1.50;;;;;;;20.89;47.48;99742.16;5135988;27;20234;-78
2023/05/02 07:10:11;;;;;;;2.30;1.33;;;;;;;20.73;47.65;99752.53;5139354;27;20224;-78
2023/05/02 07:12:39;;;;;;;1.70;1.23;;;;;;;21.26;46.35;99751.25;5138401;27;20211;-79
2023/05/02 07:15:07;;;;;;;1.20;1.10;;;;;;;21.09;48.28;99747.03;5139106;27;20273;-78
2023/05/02 07:17:34;;;;;;;4.00;1.37;;;;;;;21.60;47.59;99745.06;5137442;27;20237;-78
2023/05/02 07:20:00;;;;;;;1.50;1.30;;;;;;;21.63;46.65;99745.53;5136239;27;20219;-78
2023/05/02 07:22:27;;;;;;;2.53;1.50;;;;;;;22.19;46.90;99742.13;5135492;27;20254;-78
2023/05/02 07:25:05;;;;;;;2.10;1.47;;;;;;;22.17;44.69;99742.31;5136180;27;20627;-78
2023/05/02 07:27:31;;;;;;;1.60;1.40;;;;;;;21.70;47.87;99749.13;5135802;27;20701;-78
2023/05/02 07:29:58;;;;;;;1.40;1.30;;;;;;;22.17;43.55;99757.94;5134323;27;20228;-79
2023/05/02 07:32:25;;;;;;;2.10;1.57;;;;;;;21.25;41.38;99752.22;5134344;27;20219;-78
2023/05/02 07:34:53;;;;;;;1.83;1.40;;;;;;;21.46;42.89;99743.94;5134999;27;20315;-78
2023/05/02 07:37:20;;;;;;;2.30;1.37;;;;;;;21.30;43.60;99743.97;5134387;27;20226;-78
2023/05/02 07:39:47;;;;;;;2.80;1.70;;;;;;;20.83;42.33;99740.22;5134597;27;20227;-77
2023/05/02 07:42:15;;;;;;;1.40;1.17;;;;;;;21.45;44.40;99748.34;5134924;27;20202;-78
2023/05/02 07:44:42;;;;;;;5.57;1.30;;;;;;;21.59;40.68;99764.28;5136590;27;20215;-77
2023/05/02 07:47:09;;;;;;;1.53;1.20;;;;;;;21.83;42.47;99756.41;5138081;27;20654;-78
2023/05/02 07:49:36;;;;;;;3.00;1.63;;;;;;;21.47;40.74;99751.59;5137079;27;20274;-80
2023/05/02 07:52:04;;;;;;;2.40;1.00;;;;;;;21.41;38.96;99756.63;5137603;27;20515;-79
2023/05/02 07:54:31;;;;;;;2.00;1.50;;;;;;;21.89;41.30;99754.91;5135281;27;20496;-80
2023/05/02 07:57:01;;;;;;;2.33;1.40;;;;;;;21.88;39.70;99756.72;5132924;27;20311;-76
2023/05/02 07:59:30;;;;;;;1.23;1.13;;;;;;;21.64;39.67;99749.78;5132896;27;20262;-77
2023/05/02 08:01:56;;;;;;;1.73;1.27;;;;;;;21.99;39.19;99760.75;5132649;27;20233;-77
2023/05/02 08:04:23;;;;;;;1.95;1.27;;;;;;;21.95;36.78;99748.22;5132665;27;20695;-77
2023/05/02 08:06:50;;;;;;;1.27;1.10;;;;;;;22.28;38.69;99749.75;5133245;27;20703;-77
2023/05/02 08:09:17;;;;;;;1.30;1.10;;;;;;;22.35;38.97;99750.69;5132860;27;20284;-77
2023/05/02 08:11:44;;;;;;;1.17;1.02;;;;;;;22.77;37.69;99749.44;5133071;27;20505;-77
2023/05/02 08:14:10;;;;;;;2.17;1.23;;;;;;;22.92;36.77;99746.09;5132710;27;20624;-77
2023/05/02 08:16:39;;;;;;;2.83;1.50;;;;;;;23.04;37.39;99748.16;5132631;27;20238;-77
2023/05/02 08:19:05;;;;;;;1.50;1.15;;;;;;;23.01;36.56;99760.75;5132782;27;20197;-77
2023/05/02 08:21:32;;;;;;;2.50;1.40;;;;;;;22.73;36.32;99752.59;5132357;27;20197;-76
2023/05/02 08:23:59;;;;;;;1.40;1.20;;;;;;;22.40;37.10;99751.97;5132049;27;20204;-76
2023/05/02 08:26:27;;;;;;;1.88;1.20;;;;;;;22.61;34.20;99760.00;5132217;27;20210;-77
2023/05/02 08:28:54;;;;;;;1.95;1.23;;;;;;;23.02;32.35;99760.56;5132086;27;20679;-77
2023/05/02 08:31:21;;;;;;;1.45;1.02;;;;;;;22.69;33.80;99757.34;5132453;27;20205;-77
2023/05/02 08:33:50;;;;;;;3.28;1.33;;;;;;;22.89;35.90;99756.88;5132152;27;20193;-77
2023/05/02 08:36:18;;;;;;;3.15;1.23;;;;;;;22.81;37.15;99758.56;5131912;27;20284;-77
2023/05/02 08:38:46;;;;;;;1.08;0.98;;;;;;;22.32;34.46;99756.25;5131772;27;20197;-77
2023/05/02 08:41:13;;;;;;;1.63;1.13;;;;;;;22.80;32.75;99748.31;5132118;27;20224;-77
2023/05/02 08:43:40;;;;;;;1.52;1.15;;;;;;;22.63;31.04;99752.00;5132238;27;20204;-77
2023/05/02 08:46:08;;;;;;;2.08;1.00;;;;;;;22.90;33.25;99753.31;5131935;27;20623;-77
2023/05/02 08:48:37;;;;;;;2.72;1.20;;;;;;;22.44;33.01;99759.28;5132018;27;20197;-77
2023/05/02 08:51:08;;;;;;;2.88;1.00;;;;;;;22.48;31.94;99750.13;5131458;27;20289;-77
2023/05/02 08:53:37;;;;;;;1.13;0.90;;;;;;;23.23;33.36;99759.91;5131525;27;20739;-77
2023/05/02 08:56:04;;;;;;;1.92;1.20;;;;;;;22.69;32.57;99757.34;5131556;27;20672;-77
2023/05/02 08:58:31;;;;;;;1.65;1.20;;;;;;;22.65;30.90;99750.84;5131365;27;20669;-77
2023/05/02 09:01:02;;;;;;;1.92;1.20;;;;;;;22.78;31.82;99752.91;5131605;27;20281;-77
2023/05/02 09:03:31;;;;;;;1.88;0.98;;;;;;;22.55;31.31;99756.28;5131347;27;20599;-77
2023/05/02 09:06:11;;;;;;;1.25;0.70;;;;;;;23.04;33.18;99758.59;5131548;27;20470;-77
2023/05/02 09:08:39;;;;;;;2.28;1.15;;;;;;;22.77;29.73;99749.44;5132035;27;20193;-77
2023/05/02 09:11:08;;;;;;;1.40;1.20;;;;;;;22.43;31.19;99744.63;5131366;27;20771;-77
2023/05/02 09:13:37;;;;;;;1.25;1.10;;;;;;;23.09;32.96;99745.00;5131676;27;20208;-77
2023/05/02 09:16:06;;;;;;;1.23;1.08;;;;;;;23.04;31.12;99742.16;5131821;27;20620;-77
2023/05/02 09:18:34;;;;;;;1.23;1.13;;;;;;;23.37;32.91;99744.47;5132213;27;20205;-78
2023/05/02 09:21:05;;;;;;;1.30;1.13;;;;;;;23.15;30.32;99741.69;5131738;27;20217;-77
2023/05/02 09:23:38;;;;;;;1.20;1.10;;;;;;;23.44;31.04;99730.50;5131687;27;20188;-79
2023/05/02 09:26:12;;;;;;;1.83;1.10;;;;;;;23.67;32.19;99729.63;5133525;27;20224;-79
2023/05/02 09:28:40;;;;;;;2.65;1.40;;;;;;;23.85;31.84;99726.69;5137705;27;20220;-80
2023/05/02 09:31:09;;;;;;;3.03;1.17;;;;;;;24.27;33.30;99725.19;5135318;27;20217;-79
2023/05/02 09:33:36;;;;;;;1.65;1.17;;;;;;;23.75;33.19;99732.19;5134910;27;20197;-80
2023/05/02 09:36:03;;;;;;;1.58;1.30;;;;;;;23.72;33.67;99725.53;5134344;27;20212;-79
2023/05/02 09:38:30;;;;;;;1.58;1.05;;;;;;;24.09;32.43;99717.75;5134195;27;20204;-79
2023/05/02 09:41:02;;;;;;;1.30;1.17;;;;;;;23.90;31.61;99706.06;5134071;27;20295;-79
2023/05/02 09:43:28;;;;;;;1.73;1.00;;;;;;;24.37;31.13;99704.78;5132959;27;20207;-79
2023/05/02 09:46:02;;;;;;;2.05;1.20;;;;;;;24.77;33.38;99716.47;5133317;27;20216;-79
2023/05/02 09:48:31;;;;;;;2.67;1.10;;;;;;;24.40;33.38;99707.84;5132909;28;20212;-79
2023/05/02 09:50:58;;;;;;;1.23;1.08;;;;;;;23.76;31.22;99706.88;5132508;28;20227;-79
2023/05/02 09:53:26;;;;;;;1.23;1.10;;;;;;;24.17;30.43;99705.41;5131912;27;20212;-79
2023/05/02 09:56:02;;;;;;;1.70;1.30;;;;;;;24.50;31.95;99694.50;5136043;27;20547;-79
2023/05/02 09:58:29;;;;;;;1.20;1.10;;;;;;;24.11;29.93;99690.44;5135847;27;20228;-79
2023/05/02 10:00:57;;;;;;;0.95;0.90;;;;;;;23.55;28.67;99695.34;5139616;27;20303;-79
2023/05/02 10:03:25;;;;;;;1.33;1.10;;;;;;;23.34;30.26;99700.47;5139928;27;20280;-79
2023/05/02 10:05:53;;;;;;;1.90;1.20;;;;;;;23.23;30.57;99694.66;5139737;27;20216;-79
2023/05/02 10:08:21;;;;;;;1.60;1.30;;;;;;;23.60;30.64;99693.00;5138720;27;20286;-79
2023/05/02 10:10:52;;;;;;;0.68;0.68;;;;;;;24.23;29.89;99688.19;5137756;27;20727;-79
2023/05/02 10:13:23;;;;;;;1.48;0.95;;;;;;;24.15;28.78;99686.47;5138129;27;20197;-80
2023/05/02 10:16:01;;;;;;;1.30;1.20;;;;;;;24.08;31.64;99685.56;5137134;27;20323;-79
2023/05/02 10:18:33;;;;;;;1.98;1.35;;;;;;;24.47;30.65;99679.19;5136267;27;20595;-80
2023/05/02 10:21:08;;;;;;;1.58;1.17;;;;;;;24.36;29.64;99677.03;5136400;27;20216;-79
2023/05/02 10:23:35;;;;;;;1.42;1.02;;;;;;;24.20;29.05;99682.47;5136511;27;20200;-79
2023/05/02 10:26:02;;;;;;;1.98;1.20;;;;;;;23.93;31.02;99687.41;5135973;27;20220;-78
2023/05/02 10:28:30;;;;;;;1.13;0.85;;;;;;;23.87;31.14;99677.69;5136216;27;20203;-79
2023/05/02 10:31:01;;;;;;;1.08;1.00;;;;;;;24.09;33.73;99674.16;5139339;27;20311;-80
2023/05/02 10:33:30;;;;;;;1.08;0.93;;;;;;;24.81;31.69;99669.81;5141892;27;20196;-79
2023/05/02 10:35:57;;;;;;;1.77;1.30;;;;;;;24.87;30.35;99671.72;5143743;27;20229;-79
2023/05/02 10:38:25;;;;;;;1.10;1.00;;;;;;;24.58;31.59;99670.84;5140255;27;20232;-79
2023/05/02 10:40:56;;;;;;;1.85;1.27;;;;;;;24.70;32.46;99676.38;5138334;27;20273;-79
2023/05/02 10:43:30;;;;;;;1.98;1.10;;;;;;;24.90;29.97;99679.19;5137047;27;20203;-80
2023/05/02 10:46:00;;;;;;;1.38;0.95;;;;;;;24.65;31.52;99670.91;5136880;27;20267;-79
2023/05/02 10:48:27;;;;;;;1.35;1.00;;;;;;;24.16;31.74;99675.00;5137048;27;20745;-79
2023/05/02 10:50:55;;;;;;;2.53;1.10;;;;;;;24.66;30.48;99663.88;5136091;27;20213;-79
2023/05/02 10:53:24;;;;;;;2.78;1.10;;;;;;;24.92;28.96;99666.69;5134904;27;20275;-79
2023/05/02 10:56:15;;;;;;;1.10;1.00;;;;;;;24.66;29.79;99667.28;5135724;27;20653;-79
2023/05/02 10:58:43;;;;;;;1.23;1.13;;;;;;;23.68;29.75;99669.41;5134934;27;20244;-79
2023/05/02 11:01:40;;;;;;;1.20;1.10;;;;;;;24.22;30.74;99662.22;5134714;27;20216;-79
2023/05/02 11:04:09;;;;;;;1.13;0.93;;;;;;;24.06;30.33;99658.03;5134925;27;20204;-79
2023/05/02 11:06:37;;;;;;;1.52;1.10;;;;;;;24.76;29.29;99667.00;5136383;27;20205;-80
2023/05/02 11:09:33;;;;;;;2.05;1.23;;;;;;;25.19;30.59;99664.28;5139244;27;20205;-79
2023/05/02 11:12:00;;;;;;;2.40;1.23;;;;;;;24.91;30.35;99659.84;5139109;27;20638;-79
2023/05/02 11:14:49;;;;;;;1.63;1.13;;;;;;;24.66;29.81;99663.88;5137692;27;20217;-79
2023/05/02 11:17:19;;;;;;;1.35;1.08;;;;;;;24.57;32.25;99664.00;5136840;27;20241;-78
2023/05/02 11:20:22;;;;;;;0.98;0.88;;;;;;;25.06;32.18;99652.72;5136855;27;20224;-79
2023/05/02 11:22:50;;;;;;;1.45;1.30;;;;;;;24.88;30.36;99665.47;5093531;27;20197;-79
2023/05/02 11:25:36;;;;;;;1.48;1.10;;;;;;;24.56;31.78;99657.16;5135769;27;20224;-78
2023/05/02 11:28:04;;;;;;;1.67;0.90;;;;;;;24.32;27.65;99653.09;5136165;27;20243;-78
2023/05/02 11:30:38;;;;;;;1.30;1.10;;;;;;;23.96;31.44;99645.25;5135146;27;20217;-78
2023/05/02 11:33:18;;;;;;;1.30;1.05;;;;;;;24.21;30.31;99637.09;5135577;27;20212;-78
2023/05/02 11:35:47;;;;;;;1.15;0.98;;;;;;;25.35;32.69;99643.06;5134521;27;20227;-79
2023/05/02 11:38:20;;;;;;;2.05;1.10;;;;;;;25.34;32.44;99648.47;5135150;27;20235;-78
2023/05/02 11:40:58;;;;;;;1.27;1.00;;;;;;;25.12;31.36;99639.88;5135672;27;20216;-78
2023/05/02 11:43:27;;;;;;;1.30;1.20;;;;;;;24.79;32.47;99635.22;5137103;27;20868;-79